sensor_id;sensor_type;location;lat;lon;timestamp;pressure;altitude;pressure_sealevel;temperature;humidity
8140;BME280;4111;50.972;7.072;2022-11-21T00:00:49;99927.66;;;8.27;100.00
8140;BME280;4111;50.972;7.072;2022-11-21T00:03:16;99934.97;;;8.26;100.00
8140;BME280;4111;50.972;7.072;2022-11-21T00:05:47;99939.88;;;8.29;100.00
8140;BME280;4111;50.972;7.072;2022-11-21T00:08:18;99942.31;;;8.31;100.00
8140;BME280;4111;50.972;7.072;2022-11-21T00:10:46;99934.19;;;8.31;100.00
8140;BME280;4111;50.972;7.072;2022-11-21T00:13:18;99938.03;;;8.35;100.00
8140;BME280;4111;50.972;7.072;2022-11-21T00:15:45;99934.78;;;8.33;100.00
8140;BME280;4111;50.972;7.072;2022-11-21T00:18:12;99938.03;;;8.35;100.00
8140;BME280;4111;50.972;7.072;2022-11-21T00:20:40;99928.88;;;8.36;100.00
8140;BME280;4111;50.972;7.072;2022-11-21T00:23:07;99936.97;;;8.36;100.00
8140;BME280;4111;50.972;7.072;2022-11-21T00:25:34;99940.75;;;8.35;100.00
8140;BME280;4111;50.972;7.072;2022-11-21T00:28:01;99946.16;;;8.35;100.00
8140;BME280;4111;50.972;7.072;2022-11-21T00:30:27;99940.19;;;8.33;100.00
8140;BME280;4111;50.972;7.072;2022-11-21T00:32:54;99930.19;;;8.33;100.00
8140;BME280;4111;50.972;7.072;2022-11-21T00:35:20;99941.25;;;8.32;100.00
8140;BME280;4111;50.972;7.072;2022-11-21T00:37:47;99935.84;;;8.32;100.00
8140;BME280;4111;50.972;7.072;2022-11-21T00:40:14;99940.69;;;8.30;100.00
8140;BME280;4111;50.972;7.072;2022-11-21T00:42:40;99951.00;;;8.33;100.00
8140;BME280;4111;50.972;7.072;2022-11-21T00:45:07;99959.69;;;8.35;100.00
8140;BME280;4111;50.972;7.072;2022-11-21T00:47:34;99947.00;;;8.36;100.00
8140;BME280;4111;50.972;7.072;2022-11-21T00:50:00;99957.84;;;8.41;100.00
8140;BME280;4111;50.972;7.072;2022-11-21T00:52:27;99964.13;;;8.41;100.00
8140;BME280;4111;50.972;7.072;2022-11-21T00:54:53;99961.16;;;8.43;100.00
8140;BME280;4111;50.972;7.072;2022-11-21T00:57:19;99963.63;;;8.44;100.00
8140;BME280;4111;50.972;7.072;2022-11-21T00:59:46;99954.34;;;8.40;100.00
8140;BME280;4111;50.972;7.072;2022-11-21T01:02:12;99960.91;;;8.44;100.00
8140;BME280;4111;50.972;7.072;2022-11-21T01:04:39;99970.38;;;8.42;100.00
8140;BME280;4111;50.972;7.072;2022-11-21T01:07:05;99964.13;;;8.41;100.00
8140;BME280;4111;50.972;7.072;2022-11-21T01:09:32;99975.97;;;8.40;100.00
8140;BME280;4111;50.972;7.072;2022-11-21T01:11:58;99969.44;;;8.36;99.69
8140;BME280;4111;50.972;7.072;2022-11-21T01:14:25;99976.22;;;8.39;99.41
8140;BME280;4111;50.972;7.072;2022-11-21T01:16:52;99968.13;;;8.39;99.60
8140;BME280;4111;50.972;7.072;2022-11-21T01:19:18;99976.59;;;8.42;99.27
8140;BME280;4111;50.972;7.072;2022-11-21T01:21:45;99979.38;;;8.47;99.35
8140;BME280;4111;50.972;7.072;2022-11-21T01:24:11;99981.50;;;8.45;98.88
8140;BME280;4111;50.972;7.072;2022-11-21T01:26:38;99985.78;;;8.41;98.71
8140;BME280;4111;50.972;7.072;2022-11-21T01:29:04;99983.88;;;8.42;98.96
8140;BME280;4111;50.972;7.072;2022-11-21T01:31:32;99987.56;;;8.36;98.41
8140;BME280;4111;50.972;7.072;2022-11-21T01:33:59;99990.50;;;8.34;98.36
8140;BME280;4111;50.972;7.072;2022-11-21T01:36:33;99994.28;;;8.33;98.58
8140;BME280;4111;50.972;7.072;2022-11-21T01:39:02;99996.16;;;8.32;98.54
8140;BME280;4111;50.972;7.072;2022-11-21T01:41:32;99999.69;;;8.33;98.40
8140;BME280;4111;50.972;7.072;2022-11-21T01:44:09;99994.03;;;8.34;98.58
8140;BME280;4111;50.972;7.072;2022-11-21T01:46:35;99993.78;;;8.36;98.31
8140;BME280;4111;50.972;7.072;2022-11-21T01:49:04;99986.44;;;8.31;98.29
8140;BME280;4111;50.972;7.072;2022-11-21T01:51:48;99991.66;;;8.38;98.29
8140;BME280;4111;50.972;7.072;2022-11-21T01:59:24;99984.59;;;8.37;98.44
8140;BME280;4111;50.972;7.072;2022-11-21T02:01:54;99988.69;;;8.40;98.61
8140;BME280;4111;50.972;7.072;2022-11-21T02:04:21;99997.06;;;8.38;98.59
8140;BME280;4111;50.972;7.072;2022-11-21T02:06:50;99995.34;;;8.32;98.34
8140;BME280;4111;50.972;7.072;2022-11-21T02:09:17;99987.50;;;8.30;98.35
8140;BME280;4111;50.972;7.072;2022-11-21T02:11:57;99997.53;;;8.35;98.67
8140;BME280;4111;50.972;7.072;2022-11-21T02:14:25;100002.38;;;8.33;98.76
8140;BME280;4111;50.972;7.072;2022-11-21T02:16:55;99989.88;;;8.27;98.80
8140;BME280;4111;50.972;7.072;2022-11-21T02:19:38;99996.41;;;8.31;98.77
8140;BME280;4111;50.972;7.072;2022-11-21T02:22:10;99991.44;;;8.23;98.77
8140;BME280;4111;50.972;7.072;2022-11-21T02:24:45;99992.00;;;8.25;98.91
8140;BME280;4111;50.972;7.072;2022-11-21T02:27:12;99995.78;;;8.24;99.12
8140;BME280;4111;50.972;7.072;2022-11-21T02:29:39;99992.00;;;8.25;99.15
8140;BME280;4111;50.972;7.072;2022-11-21T02:32:05;99992.00;;;8.25;99.00
8140;BME280;4111;50.972;7.072;2022-11-21T02:34:32;99996.94;;;8.28;99.21
8140;BME280;4111;50.972;7.072;2022-11-21T02:36:59;99991.00;;;8.31;99.32
8140;BME280;4111;50.972;7.072;2022-11-21T02:39:33;99997.41;;;8.25;99.27
8140;BME280;4111;50.972;7.072;2022-11-21T02:42:08;99993.66;;;8.26;99.42
8140;BME280;4111;50.972;7.072;2022-11-21T02:44:42;99987.72;;;8.29;99.39
8140;BME280;4111;50.972;7.072;2022-11-21T02:47:13;99992.31;;;8.28;99.17
8140;BME280;4111;50.972;7.072;2022-11-21T02:49:45;99996.13;;;8.27;99.45
8140;BME280;4111;50.972;7.072;2022-11-21T02:52:14;99994.47;;;8.26;99.19
8140;BME280;4111;50.972;7.072;2022-11-21T02:54:41;99995.53;;;8.25;99.55
8140;BME280;4111;50.972;7.072;2022-11-21T02:57:07;99997.97;;;8.27;99.17
8140;BME280;4111;50.972;7.072;2022-11-21T02:59:33;100004.16;;;8.22;99.49
8140;BME280;4111;50.972;7.072;2022-11-21T03:02:00;100001.03;;;8.13;98.94
8140;BME280;4111;50.972;7.072;2022-11-21T03:04:27;99998.50;;;8.07;98.70
8140;BME280;4111;50.972;7.072;2022-11-21T03:06:54;100000.72;;;8.10;98.67
8140;BME280;4111;50.972;7.072;2022-11-21T03:09:21;100004.00;;;8.12;98.59
8140;BME280;4111;50.972;7.072;2022-11-21T03:11:47;100002.19;;;8.18;98.34
8140;BME280;4111;50.972;7.072;2022-11-21T03:14:14;99991.44;;;8.23;98.41
8140;BME280;4111;50.972;7.072;2022-11-21T03:16:40;99998.50;;;8.24;98.63
8140;BME280;4111;50.972;7.072;2022-11-21T03:19:07;100001.63;;;8.16;97.93
8140;BME280;4111;50.972;7.072;2022-11-21T03:21:33;100008.56;;;8.11;97.78
8140;BME280;4111;50.972;7.072;2022-11-21T03:23:59;100001.88;;;8.14;98.02
8140;BME280;4111;50.972;7.072;2022-11-21T03:26:26;99998.09;;;8.15;97.82
8140;BME280;4111;50.972;7.072;2022-11-21T03:28:53;99992.19;;;8.18;97.67
8140;BME280;4111;50.972;7.072;2022-11-21T03:31:19;99999.16;;;8.14;97.59
8140;BME280;4111;50.972;7.072;2022-11-21T03:33:46;99992.44;;;8.17;97.05
8140;BME280;4111;50.972;7.072;2022-11-21T03:36:12;99996.13;;;8.10;97.41
8140;BME280;4111;50.972;7.072;2022-11-21T03:38:38;100006.88;;;8.05;97.19
8140;BME280;4111;50.972;7.072;2022-11-21T03:41:06;100011.53;;;8.10;97.29
8140;BME280;4111;50.972;7.072;2022-11-21T03:43:52;100015.16;;;8.16;97.49
8140;BME280;4111;50.972;7.072;2022-11-21T03:46:19;100007.91;;;8.21;96.81
8140;BME280;4111;50.972;7.072;2022-11-21T03:48:45;100002.19;;;8.18;97.58
8140;BME280;4111;50.972;7.072;2022-11-21T03:51:12;100003.34;;;8.22;97.50
8140;BME280;4111;50.972;7.072;2022-11-21T03:53:38;100004.16;;;8.22;97.13
8140;BME280;4111;50.972;7.072;2022-11-21T03:56:04;100012.81;;;8.24;97.53
8140;BME280;4111;50.972;7.072;2022-11-21T03:58:31;100011.44;;;8.22;97.42
8140;BME280;4111;50.972;7.072;2022-11-21T04:00:57;100018.47;;;8.23;97.16
8140;BME280;4111;50.972;7.072;2022-11-21T04:03:24;100021.28;;;8.28;97.48
8140;BME280;4111;50.972;7.072;2022-11-21T04:05:50;100016.44;;;8.30;97.14
8140;BME280;4111;50.972;7.072;2022-11-21T04:08:17;100014.22;;;8.27;97.36
8140;BME280;4111;50.972;7.072;2022-11-21T04:10:48;100013.63;;;8.25;96.95
8140;BME280;4111;50.972;7.072;2022-11-21T04:13:14;100012.81;;;8.24;97.15
8140;BME280;4111;50.972;7.072;2022-11-21T04:15:41;100012.91;;;8.29;97.32
8140;BME280;4111;50.972;7.072;2022-11-21T04:18:08;100014.78;;;8.29;97.27
8140;BME280;4111;50.972;7.072;2022-11-21T04:20:35;100013.97;;;8.28;97.25
8140;BME280;4111;50.972;7.072;2022-11-21T04:23:02;100009.03;;;8.25;97.15
8140;BME280;4111;50.972;7.072;2022-11-21T04:25:28;100015.03;;;8.27;97.52
8140;BME280;4111;50.972;7.072;2022-11-21T04:27:59;100014.78;;;8.29;97.50
8140;BME280;4111;50.972;7.072;2022-11-21T04:30:27;100021.94;;;8.18;97.24
8140;BME280;4111;50.972;7.072;2022-11-21T04:32:55;100024.06;;;8.16;97.02
8140;BME280;4111;50.972;7.072;2022-11-21T04:35:22;100025.06;;;8.10;97.01
8140;BME280;4111;50.972;7.072;2022-11-21T04:37:49;100025.38;;;8.13;97.33
8140;BME280;4111;50.972;7.072;2022-11-21T04:40:16;100023.06;;;8.22;97.39
8140;BME280;4111;50.972;7.072;2022-11-21T04:42:44;100023.88;;;8.23;97.32
8140;BME280;4111;50.972;7.072;2022-11-21T04:45:12;100023.06;;;8.22;97.30
8140;BME280;4111;50.972;7.072;2022-11-21T04:47:40;100026.59;;;8.23;97.41
8140;BME280;4111;50.972;7.072;2022-11-21T04:50:08;100024.22;;;8.09;97.32
8140;BME280;4111;50.972;7.072;2022-11-21T04:52:35;100020.56;;;7.99;97.03
8140;BME280;4111;50.972;7.072;2022-11-21T04:55:03;100005.72;;;8.01;97.76
8140;BME280;4111;50.972;7.072;2022-11-21T04:57:30;100004.69;;;8.02;97.98
8140;BME280;4111;50.972;7.072;2022-11-21T04:59:57;100006.94;;;8.10;98.29
8140;BME280;4111;50.972;7.072;2022-11-21T05:02:24;100007.03;;;8.16;98.26
8140;BME280;4111;50.972;7.072;2022-11-21T05:04:50;100005.72;;;8.18;98.13
8140;BME280;4111;50.972;7.072;2022-11-21T05:07:16;100006.28;;;8.20;98.07
8140;BME280;4111;50.972;7.072;2022-11-21T05:09:43;100008.22;;;8.25;98.08
8140;BME280;4111;50.972;7.072;2022-11-21T05:12:10;100000.34;;;8.23;97.84
8140;BME280;4111;50.972;7.072;2022-11-21T05:14:56;100008.34;;;8.13;97.67
8140;BME280;4111;50.972;7.072;2022-11-21T05:17:22;100012.69;;;8.14;98.10
8140;BME280;4111;50.972;7.072;2022-11-21T05:19:48;100008.34;;;8.13;97.96
8140;BME280;4111;50.972;7.072;2022-11-21T05:22:15;99997.59;;;8.18;98.23
8140;BME280;4111;50.972;7.072;2022-11-21T05:24:41;100009.75;;;8.16;97.79
8140;BME280;4111;50.972;7.072;2022-11-21T05:27:07;100001.34;;;8.17;98.03
8140;BME280;4111;50.972;7.072;2022-11-21T05:29:34;99997.03;;;8.16;98.24
8140;BME280;4111;50.972;7.072;2022-11-21T05:32:01;99998.41;;;8.19;97.94
8140;BME280;4111;50.972;7.072;2022-11-21T05:34:27;99996.78;;;8.18;97.75
8140;BME280;4111;50.972;7.072;2022-11-21T05:36:54;99987.59;;;8.19;98.05
8140;BME280;4111;50.972;7.072;2022-11-21T05:39:22;99988.72;;;8.23;97.97
8140;BME280;4111;50.972;7.072;2022-11-21T05:41:49;99988.72;;;8.23;97.96
8140;BME280;4111;50.972;7.072;2022-11-21T05:44:16;99996.28;;;8.21;98.15
8140;BME280;4111;50.972;7.072;2022-11-21T05:46:43;99988.72;;;8.23;98.21
8140;BME280;4111;50.972;7.072;2022-11-21T05:49:10;99995.13;;;8.17;98.38
8140;BME280;4111;50.972;7.072;2022-11-21T05:51:37;99996.78;;;8.18;98.57
8140;BME280;4111;50.972;7.072;2022-11-21T05:54:03;100007.59;;;8.18;98.87
8140;BME280;4111;50.972;7.072;2022-11-21T05:56:30;100004.63;;;8.19;98.97
8140;BME280;4111;50.972;7.072;2022-11-21T05:58:57;100000.88;;;8.20;98.97
8140;BME280;4111;50.972;7.072;2022-11-21T06:01:24;100007.09;;;8.21;99.35
8140;BME280;4111;50.972;7.072;2022-11-21T06:04:09;100005.75;;;8.23;99.48
8140;BME280;4111;50.972;7.072;2022-11-21T06:06:36;99998.22;;;8.25;99.92
8140;BME280;4111;50.972;7.072;2022-11-21T06:09:03;100004.47;;;8.26;99.52
8140;BME280;4111;50.972;7.072;2022-11-21T06:11:29;100002.00;;;8.24;100.00
8140;BME280;4111;50.972;7.072;2022-11-21T06:13:56;100007.22;;;8.31;99.90
8140;BME280;4111;50.972;7.072;2022-11-21T06:16:22;99999.63;;;8.28;99.88
8140;BME280;4111;50.972;7.072;2022-11-21T06:18:50;100000.19;;;8.30;99.93
8140;BME280;4111;50.972;7.072;2022-11-21T06:21:26;99992.00;;;8.25;99.77
8140;BME280;4111;50.972;7.072;2022-11-21T06:23:55;99994.00;;;8.12;99.77
8140;BME280;4111;50.972;7.072;2022-11-21T06:26:24;99979.91;;;8.10;99.94
8140;BME280;4111;50.972;7.072;2022-11-21T06:28:50;99985.13;;;8.17;100.00
8140;BME280;4111;50.972;7.072;2022-11-21T06:31:22;99987.09;;;8.22;99.70
8140;BME280;4111;50.972;7.072;2022-11-21T06:33:54;99981.19;;;8.25;99.70
8140;BME280;4111;50.972;7.072;2022-11-21T06:36:21;99985.78;;;8.24;99.75
8140;BME280;4111;50.972;7.072;2022-11-21T06:38:47;99980.84;;;8.21;99.38
8140;BME280;4111;50.972;7.072;2022-11-21T06:41:18;99976.28;;;8.22;100.00
8140;BME280;4111;50.972;7.072;2022-11-21T06:43:46;99982.19;;;8.19;99.75
8140;BME280;4111;50.972;7.072;2022-11-21T06:46:13;99980.56;;;8.18;99.73
8140;BME280;4111;50.972;7.072;2022-11-21T06:48:40;99979.47;;;8.19;100.00
8140;BME280;4111;50.972;7.072;2022-11-21T06:51:18;99987.59;;;8.19;99.77
8140;BME280;4111;50.972;7.072;2022-11-21T06:53:46;99985.66;;;8.14;99.89
8140;BME280;4111;50.972;7.072;2022-11-21T06:56:14;99993.66;;;8.09;99.95
8140;BME280;4111;50.972;7.072;2022-11-21T06:58:40;99995.91;;;8.12;100.00
8140;BME280;4111;50.972;7.072;2022-11-21T07:01:09;99999.41;;;8.12;100.00
8140;BME280;4111;50.972;7.072;2022-11-21T07:03:36;99997.50;;;8.13;100.00
8140;BME280;4111;50.972;7.072;2022-11-21T07:06:02;99990.22;;;8.13;100.00
8140;BME280;4111;50.972;7.072;2022-11-21T07:08:30;99997.75;;;8.11;100.00
8140;BME280;4111;50.972;7.072;2022-11-21T07:11:05;99997.75;;;8.11;99.94
8140;BME280;4111;50.972;7.072;2022-11-21T07:13:52;99997.63;;;8.01;100.00
8140;BME280;4111;50.972;7.072;2022-11-21T07:16:19;99996.56;;;8.02;99.75
8140;BME280;4111;50.972;7.072;2022-11-21T07:18:45;99997.69;;;8.06;100.00
8140;BME280;4111;50.972;7.072;2022-11-21T07:21:11;99990.97;;;8.09;100.00
8140;BME280;4111;50.972;7.072;2022-11-21T07:23:38;99996.13;;;8.10;100.00
8140;BME280;4111;50.972;7.072;2022-11-21T07:26:06;99998.59;;;8.12;100.00
8140;BME280;4111;50.972;7.072;2022-11-21T07:28:33;99997.09;;;8.21;100.00
8140;BME280;4111;50.972;7.072;2022-11-21T07:31:01;99986.59;;;8.25;100.00
8140;BME280;4111;50.972;7.072;2022-11-21T07:33:35;99989.88;;;8.27;100.00
8140;BME280;4111;50.972;7.072;2022-11-21T07:36:02;99986.81;;;8.40;100.00
8140;BME280;4111;50.972;7.072;2022-11-21T07:38:29;99984.09;;;8.40;99.93
8140;BME280;4111;50.972;7.072;2022-11-21T07:40:55;99984.09;;;8.40;99.82
8140;BME280;4111;50.972;7.072;2022-11-21T07:43:22;99985.84;;;8.46;99.89
8140;BME280;4111;50.972;7.072;2022-11-21T07:45:48;99981.31;;;8.52;99.49
8140;BME280;4111;50.972;7.072;2022-11-21T07:48:15;99983.69;;;8.48;99.36
8140;BME280;4111;50.972;7.072;2022-11-21T07:50:41;99980.94;;;8.43;99.40
8140;BME280;4111;50.972;7.072;2022-11-21T07:53:09;99984.78;;;8.47;99.33
8140;BME280;4111;50.972;7.072;2022-11-21T07:55:36;99977.84;;;8.57;99.27
8140;BME280;4111;50.972;7.072;2022-11-21T07:58:11;99986.72;;;8.52;98.88
8140;BME280;4111;50.972;7.072;2022-11-21T08:00:39;99986.41;;;8.48;98.73
8140;BME280;4111;50.972;7.072;2022-11-21T08:03:08;99986.91;;;8.45;97.96
8140;BME280;4111;50.972;7.072;2022-11-21T08:05:40;99994.91;;;8.40;98.36
8140;BME280;4111;50.972;7.072;2022-11-21T08:08:08;99990.09;;;8.42;98.43
8140;BME280;4111;50.972;7.072;2022-11-21T08:10:37;99980.38;;;8.41;98.37
8140;BME280;4111;50.972;7.072;2022-11-21T08:13:04;99978.47;;;8.42;98.87
8140;BME280;4111;50.972;7.072;2022-11-21T08:15:31;99963.06;;;8.42;98.46
8140;BME280;4111;50.972;7.072;2022-11-21T08:17:57;99963.63;;;8.44;98.29
8140;BME280;4111;50.972;7.072;2022-11-21T08:20:24;99958.09;;;8.39;98.20
8140;BME280;4111;50.972;7.072;2022-11-21T08:22:51;99954.94;;;8.42;97.98
8140;BME280;4111;50.972;7.072;2022-11-21T08:25:17;99952.03;;;8.49;97.85
8140;BME280;4111;50.972;7.072;2022-11-21T08:27:44;99967.22;;;8.50;97.76
8140;BME280;4111;50.972;7.072;2022-11-21T08:30:11;99968.53;;;8.47;97.52
8140;BME280;4111;50.972;7.072;2022-11-21T08:32:37;99971.50;;;8.46;97.13
8140;BME280;4111;50.972;7.072;2022-11-21T08:35:04;99965.00;;;8.47;97.22
8140;BME280;4111;50.972;7.072;2022-11-21T08:37:31;99978.22;;;8.43;97.38
8140;BME280;4111;50.972;7.072;2022-11-21T08:39:57;99965.09;;;8.35;97.02
8140;BME280;4111;50.972;7.072;2022-11-21T08:42:24;99974.09;;;8.41;97.15
8140;BME280;4111;50.972;7.072;2022-11-21T08:44:51;99968.78;;;8.46;97.23
8140;BME280;4111;50.972;7.072;2022-11-21T08:47:17;99975.53;;;8.43;97.14
8140;BME280;4111;50.972;7.072;2022-11-21T08:49:46;99973.19;;;8.35;96.75
8140;BME280;4111;50.972;7.072;2022-11-21T08:52:16;99968.06;;;8.33;96.86
8140;BME280;4111;50.972;7.072;2022-11-21T08:54:45;99967.22;;;8.33;96.53
8140;BME280;4111;50.972;7.072;2022-11-21T08:57:12;99971.50;;;8.29;96.71
8140;BME280;4111;50.972;7.072;2022-11-21T08:59:38;99967.75;;;8.30;96.94
8140;BME280;4111;50.972;7.072;2022-11-21T09:02:05;99962.34;;;8.30;96.61
8140;BME280;4111;50.972;7.072;2022-11-21T09:04:32;99960.69;;;8.29;96.51
8140;BME280;4111;50.972;7.072;2022-11-21T09:06:58;99961.81;;;8.33;96.97
8140;BME280;4111;50.972;7.072;2022-11-21T09:09:26;99967.88;;;8.40;97.05
8140;BME280;4111;50.972;7.072;2022-11-21T09:11:52;99966.16;;;8.34;96.90
8140;BME280;4111;50.972;7.072;2022-11-21T09:14:19;99961.00;;;8.32;97.59
8140;BME280;4111;50.972;7.072;2022-11-21T09:17:03;99959.09;;;8.33;97.99
8140;BME280;4111;50.972;7.072;2022-11-21T09:19:48;99954.28;;;8.35;98.05
8140;BME280;4111;50.972;7.072;2022-11-21T09:22:15;99952.97;;;8.38;98.25
8140;BME280;4111;50.972;7.072;2022-11-21T09:24:42;99941.97;;;8.44;98.06
8140;BME280;4111;50.972;7.072;2022-11-21T09:27:08;99938.50;;;8.49;98.31
8140;BME280;4111;50.972;7.072;2022-11-21T09:29:34;99938.81;;;8.52;98.00
8140;BME280;4111;50.972;7.072;2022-11-21T09:32:01;99932.84;;;8.50;98.70
8140;BME280;4111;50.972;7.072;2022-11-21T09:34:27;99941.03;;;8.56;99.11
8140;BME280;4111;50.972;7.072;2022-11-21T09:36:54;99940.97;;;8.50;99.27
8140;BME280;4111;50.972;7.072;2022-11-21T09:39:21;99938.81;;;8.52;99.29
8140;BME280;4111;50.972;7.072;2022-11-21T09:44:46;99945.88;;;8.53;99.79
8140;BME280;4111;50.972;7.072;2022-11-21T09:47:22;99930.34;;;8.66;99.88
8140;BME280;4111;50.972;7.072;2022-11-21T09:49:57;99931.53;;;8.75;99.41
8140;BME280;4111;50.972;7.072;2022-11-21T09:52:29;99923.97;;;8.77;99.74
8140;BME280;4111;50.972;7.072;2022-11-21T09:55:00;99927.09;;;8.91;99.54
8140;BME280;4111;50.972;7.072;2022-11-21T09:57:31;99924.56;;;8.84;98.75
8140;BME280;4111;50.972;7.072;2022-11-21T10:00:03;99922.97;;;8.88;98.44
8140;BME280;4111;50.972;7.072;2022-11-21T10:02:35;99914.03;;;8.88;98.13
8140;BME280;4111;50.972;7.072;2022-11-21T10:05:02;99911.75;;;9.02;97.87
8140;BME280;4111;50.972;7.072;2022-11-21T10:07:31;99902.91;;;9.11;97.77
8140;BME280;4111;50.972;7.072;2022-11-21T10:21:06;99903.81;;;9.22;96.91
8140;BME280;4111;50.972;7.072;2022-11-21T10:26:50;99893.50;;;9.19;95.97
8140;BME280;4111;50.972;7.072;2022-11-21T10:29:30;99883.47;;;9.20;95.73
8140;BME280;4111;50.972;7.072;2022-11-21T10:32:12;99874.47;;;9.14;95.07
8140;BME280;4111;50.972;7.072;2022-11-21T10:34:42;99866.91;;;9.16;94.79
8140;BME280;4111;50.972;7.072;2022-11-21T10:37:24;99868.50;;;9.12;94.94
8140;BME280;4111;50.972;7.072;2022-11-21T10:39:53;99866.28;;;9.04;94.82
8140;BME280;4111;50.972;7.072;2022-11-21T10:42:43;99867.44;;;9.13;95.06
8140;BME280;4111;50.972;7.072;2022-11-21T10:45:13;99867.13;;;9.09;94.74
8140;BME280;4111;50.972;7.072;2022-11-21T10:47:46;99850.38;;;9.12;95.00
8140;BME280;4111;50.972;7.072;2022-11-21T10:55:59;99835.00;;;9.23;94.83
8140;BME280;4111;50.972;7.072;2022-11-21T10:58:34;99838.28;;;9.25;94.72
8140;BME280;4111;50.972;7.072;2022-11-21T11:01:01;99829.59;;;9.23;94.40
8140;BME280;4111;50.972;7.072;2022-11-21T11:03:28;99825.84;;;9.29;94.22
8140;BME280;4111;50.972;7.072;2022-11-21T11:05:56;99826.19;;;9.38;93.76
8140;BME280;4111;50.972;7.072;2022-11-21T11:08:25;99823.53;;;9.48;93.29
8140;BME280;4111;50.972;7.072;2022-11-21T11:11:06;99820.63;;;9.65;92.85
8140;BME280;4111;50.972;7.072;2022-11-21T11:13:54;99810.41;;;9.78;92.31
8140;BME280;4111;50.972;7.072;2022-11-21T11:16:23;99801.78;;;9.91;91.62
8140;BME280;4111;50.972;7.072;2022-11-21T11:18:56;99798.84;;;10.03;90.86
8140;BME280;4111;50.972;7.072;2022-11-21T11:21:28;99796.47;;;10.22;89.82
8140;BME280;4111;50.972;7.072;2022-11-21T11:24:19;99784.81;;;10.21;88.65
8140;BME280;4111;50.972;7.072;2022-11-21T11:29:48;99770.47;;;10.36;86.91
8140;BME280;4111;50.972;7.072;2022-11-21T11:32:18;99770.97;;;10.23;85.94
8140;BME280;4111;50.972;7.072;2022-11-21T11:34:58;99766.34;;;10.13;85.38
8140;BME280;4111;50.972;7.072;2022-11-21T11:37:36;99760.94;;;10.13;85.50
8140;BME280;4111;50.972;7.072;2022-11-21T11:46:28;99733.56;;;10.30;85.96
8140;BME280;4111;50.972;7.072;2022-11-21T11:49:31;99730.84;;;10.25;85.54
8140;BME280;4111;50.972;7.072;2022-11-21T11:52:21;99727.56;;;10.23;85.21
8140;BME280;4111;50.972;7.072;2022-11-21T11:54:55;99726.75;;;10.22;85.09
8140;BME280;4111;50.972;7.072;2022-11-21T11:57:25;99723.78;;;10.24;84.83
8140;BME280;4111;50.972;7.072;2022-11-21T12:02:57;99714.63;;;10.50;84.56
8140;BME280;4111;50.972;7.072;2022-11-21T12:05:27;99721.13;;;10.55;83.50
8140;BME280;4111;50.972;7.072;2022-11-21T12:08:07;99713.78;;;10.55;83.04
8140;BME280;4111;50.972;7.072;2022-11-21T12:11:01;99710.78;;;10.36;81.41
8140;BME280;4111;50.972;7.072;2022-11-21T12:13:51;99715.38;;;10.25;81.17
8140;BME280;4111;50.972;7.072;2022-11-21T12:16:23;99710.75;;;10.16;80.45
8140;BME280;4111;50.972;7.072;2022-11-21T12:18:54;99708.63;;;10.48;80.88
8140;BME280;4111;50.972;7.072;2022-11-21T12:21:21;99694.53;;;10.57;79.67
8140;BME280;4111;50.972;7.072;2022-11-21T12:23:55;99696.94;;;10.58;78.73
8140;BME280;4111;50.972;7.072;2022-11-21T12:32:10;99675.25;;;10.63;77.09
8140;BME280;4111;50.972;7.072;2022-11-21T12:35:38;99672.22;;;10.70;76.17
8140;BME280;4111;50.972;7.072;2022-11-21T12:40:47;99658.69;;;10.60;75.56
8140;BME280;4111;50.972;7.072;2022-11-21T12:43:40;99654.09;;;10.45;75.29
8140;BME280;4111;50.972;7.072;2022-11-21T12:46:26;99661.41;;;10.39;75.42
8140;BME280;4111;50.972;7.072;2022-11-21T12:52:30;99647.00;;;10.23;75.80
8140;BME280;4111;50.972;7.072;2022-11-21T13:00:35;99641.84;;;10.11;76.25
8140;BME280;4111;50.972;7.072;2022-11-21T13:06:16;99631.28;;;10.30;76.09
8140;BME280;4111;50.972;7.072;2022-11-21T13:08:44;99626.94;;;10.35;76.31
8140;BME280;4111;50.972;7.072;2022-11-21T13:11:20;99631.00;;;10.47;76.16
8140;BME280;4111;50.972;7.072;2022-11-21T13:14:17;99617.19;;;10.39;75.50
8140;BME280;4111;50.972;7.072;2022-11-21T13:16:51;99616.91;;;10.25;75.30
8140;BME280;4111;50.972;7.072;2022-11-21T13:19:34;99618.78;;;10.29;75.94
8140;BME280;4111;50.972;7.072;2022-11-21T13:22:01;99614.75;;;10.32;75.30
8140;BME280;4111;50.972;7.072;2022-11-21T13:27:31;99605.22;;;10.24;74.24
8140;BME280;4111;50.972;7.072;2022-11-21T13:32:42;99599.00;;;10.13;73.18
8140;BME280;4111;50.972;7.072;2022-11-21T13:45:55;99567.00;;;10.00;72.94
8140;BME280;4111;50.972;7.072;2022-11-21T14:05:05;99525.75;;;10.24;71.93
8140;BME280;4111;50.972;7.072;2022-11-21T14:07:39;99523.31;;;10.38;72.33
8140;BME280;4111;50.972;7.072;2022-11-21T14:12:47;99513.28;;;10.33;72.29
8140;BME280;4111;50.972;7.072;2022-11-21T14:15:45;99501.91;;;10.31;72.34
8140;BME280;4111;50.972;7.072;2022-11-21T14:18:23;99495.38;;;10.11;72.20
8140;BME280;4111;50.972;7.072;2022-11-21T14:20:53;99489.69;;;10.03;72.30
8140;BME280;4111;50.972;7.072;2022-11-21T14:23:24;99484.56;;;9.96;72.47
8140;BME280;4111;50.972;7.072;2022-11-21T14:26:10;99475.34;;;10.02;72.79
8140;BME280;4111;50.972;7.072;2022-11-21T14:28:37;99470.19;;;10.06;72.89
8140;BME280;4111;50.972;7.072;2022-11-21T14:31:08;99474.78;;;10.00;72.86
8140;BME280;4111;50.972;7.072;2022-11-21T14:33:45;99471.28;;;9.89;73.07
8140;BME280;4111;50.972;7.072;2022-11-21T14:36:19;99465.03;;;9.94;73.51
8140;BME280;4111;50.972;7.072;2022-11-21T14:38:58;99465.31;;;9.98;73.65
8140;BME280;4111;50.972;7.072;2022-11-21T14:41:53;99469.38;;;9.90;73.57
8140;BME280;4111;50.972;7.072;2022-11-21T14:44:22;99465.06;;;9.73;73.82
8140;BME280;4111;50.972;7.072;2022-11-21T14:46:50;99448.28;;;9.66;74.28
8140;BME280;4111;50.972;7.072;2022-11-21T14:49:19;99442.28;;;9.69;74.45
8140;BME280;4111;50.972;7.072;2022-11-21T14:55:00;99420.91;;;9.63;75.27
8140;BME280;4111;50.972;7.072;2022-11-21T14:57:47;99402.22;;;9.56;75.73
8140;BME280;4111;50.972;7.072;2022-11-21T15:00:15;99386.50;;;9.53;75.60
8140;BME280;4111;50.972;7.072;2022-11-21T15:03:03;99389.22;;;9.38;75.78
8140;BME280;4111;50.972;7.072;2022-11-21T15:05:32;99388.94;;;9.29;76.05
8140;BME280;4111;50.972;7.072;2022-11-21T15:08:23;99388.69;;;9.30;75.95
8140;BME280;4111;50.972;7.072;2022-11-21T15:11:09;99382.44;;;9.35;76.04
8140;BME280;4111;50.972;7.072;2022-11-21T15:13:37;99371.09;;;9.23;76.26
8140;BME280;4111;50.972;7.072;2022-11-21T15:16:24;99364.31;;;9.15;76.51
8140;BME280;4111;50.972;7.072;2022-11-21T15:18:52;99351.84;;;9.14;76.72
8140;BME280;4111;50.972;7.072;2022-11-21T15:21:19;99352.41;;;9.11;76.69
8140;BME280;4111;50.972;7.072;2022-11-21T15:23:45;99349.69;;;9.11;77.01